sensor_id;sensor_type;location;lat;lon;timestamp;temperature;humidity
51613;DHT22;37694;51.748;14.326;2024-02-26T00:01:11;23.50;46.30
51613;DHT22;37694;51.748;14.326;2024-02-26T00:03:37;23.50;46.20
51613;DHT22;37694;51.748;14.326;2024-02-26T00:06:02;23.50;46.30
51613;DHT22;37694;51.748;14.326;2024-02-26T00:08:29;23.50;46.30
51613;DHT22;37694;51.748;14.326;2024-02-26T00:10:54;23.50;46.10
51613;DHT22;37694;51.748;14.326;2024-02-26T00:13:20;23.50;46.40
51613;DHT22;37694;51.748;14.326;2024-02-26T00:15:47;23.50;46.40
51613;DHT22;37694;51.748;14.326;2024-02-26T00:18:13;23.50;46.40
51613;DHT22;37694;51.748;14.326;2024-02-26T00:20:38;23.40;46.30
51613;DHT22;37694;51.748;14.326;2024-02-26T00:23:05;23.40;46.00
51613;DHT22;37694;51.748;14.326;2024-02-26T00:25:31;23.40;46.00
51613;DHT22;37694;51.748;14.326;2024-02-26T00:27:57;23.40;46.30
51613;DHT22;37694;51.748;14.326;2024-02-26T00:30:23;23.40;46.10
51613;DHT22;37694;51.748;14.326;2024-02-26T00:32:48;23.40;46.20
51613;DHT22;37694;51.748;14.326;2024-02-26T00:35:14;23.40;46.00
51613;DHT22;37694;51.748;14.326;2024-02-26T00:37:41;23.40;46.00
51613;DHT22;37694;51.748;14.326;2024-02-26T00:40:08;23.40;46.10
51613;DHT22;37694;51.748;14.326;2024-02-26T00:42:34;23.40;46.10
51613;DHT22;37694;51.748;14.326;2024-02-26T00:45:00;23.40;46.80
51613;DHT22;37694;51.748;14.326;2024-02-26T00:47:26;23.30;46.10
51613;DHT22;37694;51.748;14.326;2024-02-26T00:49:51;23.30;45.90
51613;DHT22;37694;51.748;14.326;2024-02-26T00:52:17;23.30;46.20
51613;DHT22;37694;51.748;14.326;2024-02-26T00:54:43;23.30;46.00
51613;DHT22;37694;51.748;14.326;2024-02-26T00:57:09;23.30;45.70
51613;DHT22;37694;51.748;14.326;2024-02-26T00:59:34;23.30;45.90
51613;DHT22;37694;51.748;14.326;2024-02-26T01:02:00;23.30;45.90
51613;DHT22;37694;51.748;14.326;2024-02-26T01:04:27;23.30;45.90
51613;DHT22;37694;51.748;14.326;2024-02-26T01:06:53;23.30;45.90
51613;DHT22;37694;51.748;14.326;2024-02-26T01:09:18;23.20;46.00
51613;DHT22;37694;51.748;14.326;2024-02-26T01:11:44;23.30;45.90
51613;DHT22;37694;51.748;14.326;2024-02-26T01:14:10;23.20;46.10
51613;DHT22;37694;51.748;14.326;2024-02-26T01:16:35;23.20;45.80
51613;DHT22;37694;51.748;14.326;2024-02-26T01:19:01;23.20;45.80
51613;DHT22;37694;51.748;14.326;2024-02-26T01:21:27;23.20;45.80
51613;DHT22;37694;51.748;14.326;2024-02-26T01:23:54;23.20;45.80
51613;DHT22;37694;51.748;14.326;2024-02-26T01:26:20;23.20;45.60
51613;DHT22;37694;51.748;14.326;2024-02-26T01:28:47;23.20;45.70
51613;DHT22;37694;51.748;14.326;2024-02-26T01:31:13;23.10;45.60
51613;DHT22;37694;51.748;14.326;2024-02-26T01:33:39;23.10;45.70
51613;DHT22;37694;51.748;14.326;2024-02-26T01:36:04;23.10;45.80
51613;DHT22;37694;51.748;14.326;2024-02-26T01:38:30;23.10;45.60
51613;DHT22;37694;51.748;14.326;2024-02-26T01:40:56;23.10;45.70
51613;DHT22;37694;51.748;14.326;2024-02-26T01:43:22;23.10;45.70
51613;DHT22;37694;51.748;14.326;2024-02-26T01:45:48;23.10;45.80
51613;DHT22;37694;51.748;14.326;2024-02-26T01:48:13;23.10;45.80
51613;DHT22;37694;51.748;14.326;2024-02-26T01:50:40;23.00;45.50
51613;DHT22;37694;51.748;14.326;2024-02-26T01:53:06;23.10;45.60
51613;DHT22;37694;51.748;14.326;2024-02-26T01:55:33;23.00;45.40
51613;DHT22;37694;51.748;14.326;2024-02-26T01:57:59;23.00;45.60
51613;DHT22;37694;51.748;14.326;2024-02-26T02:00:25;23.00;45.50
51613;DHT22;37694;51.748;14.326;2024-02-26T02:02:51;23.00;45.50
51613;DHT22;37694;51.748;14.326;2024-02-26T02:05:18;23.00;45.50
51613;DHT22;37694;51.748;14.326;2024-02-26T02:07:45;23.00;45.30
51613;DHT22;37694;51.748;14.326;2024-02-26T02:10:12;23.00;45.50
51613;DHT22;37694;51.748;14.326;2024-02-26T02:12:38;23.00;45.50
51613;DHT22;37694;51.748;14.326;2024-02-26T02:15:05;23.00;45.50
51613;DHT22;37694;51.748;14.326;2024-02-26T02:17:31;23.00;45.50
51613;DHT22;37694;51.748;14.326;2024-02-26T02:19:57;23.00;45.50
51613;DHT22;37694;51.748;14.326;2024-02-26T02:22:23;22.90;45.60
51613;DHT22;37694;51.748;14.326;2024-02-26T02:24:49;23.00;45.60
51613;DHT22;37694;51.748;14.326;2024-02-26T02:27:15;23.00;45.70
51613;DHT22;37694;51.748;14.326;2024-02-26T02:29:42;22.90;45.60
51613;DHT22;37694;51.748;14.326;2024-02-26T02:32:08;22.90;45.50
51613;DHT22;37694;51.748;14.326;2024-02-26T02:34:34;22.90;45.50
51613;DHT22;37694;51.748;14.326;2024-02-26T02:37:01;22.90;45.50
51613;DHT22;37694;51.748;14.326;2024-02-26T02:39:26;22.90;45.30
51613;DHT22;37694;51.748;14.326;2024-02-26T02:41:52;22.90;45.40
51613;DHT22;37694;51.748;14.326;2024-02-26T02:44:18;22.90;45.40
51613;DHT22;37694;51.748;14.326;2024-02-26T02:46:43;22.80;45.30
51613;DHT22;37694;51.748;14.326;2024-02-26T02:49:10;22.80;45.40
51613;DHT22;37694;51.748;14.326;2024-02-26T02:51:36;22.80;45.30
51613;DHT22;37694;51.748;14.326;2024-02-26T02:54:02;22.90;45.50
51613;DHT22;37694;51.748;14.326;2024-02-26T02:56:28;22.80;45.40
51613;DHT22;37694;51.748;14.326;2024-02-26T02:58:54;22.80;45.40
51613;DHT22;37694;51.748;14.326;2024-02-26T03:01:20;22.80;45.30
51613;DHT22;37694;51.748;14.326;2024-02-26T03:03:45;22.80;45.30
51613;DHT22;37694;51.748;14.326;2024-02-26T03:06:11;22.80;45.30
51613;DHT22;37694;51.748;14.326;2024-02-26T03:08:37;22.80;45.20
51613;DHT22;37694;51.748;14.326;2024-02-26T03:11:05;22.70;45.30
51613;DHT22;37694;51.748;14.326;2024-02-26T03:13:30;22.70;45.40
51613;DHT22;37694;51.748;14.326;2024-02-26T03:15:56;22.70;45.30
51613;DHT22;37694;51.748;14.326;2024-02-26T03:18:22;22.70;45.10
51613;DHT22;37694;51.748;14.326;2024-02-26T03:20:49;22.70;44.90
51613;DHT22;37694;51.748;14.326;2024-02-26T03:23:15;22.70;45.00
51613;DHT22;37694;51.748;14.326;2024-02-26T03:25:45;22.70;45.10
51613;DHT22;37694;51.748;14.326;2024-02-26T03:28:13;22.70;45.10
51613;DHT22;37694;51.748;14.326;2024-02-26T03:30:39;22.70;45.20
51613;DHT22;37694;51.748;14.326;2024-02-26T03:33:04;22.70;45.20
51613;DHT22;37694;51.748;14.326;2024-02-26T03:35:30;22.60;45.10
51613;DHT22;37694;51.748;14.326;2024-02-26T03:37:56;22.60;45.20
51613;DHT22;37694;51.748;14.326;2024-02-26T03:40:21;22.70;45.30
51613;DHT22;37694;51.748;14.326;2024-02-26T03:42:47;22.60;45.20
51613;DHT22;37694;51.748;14.326;2024-02-26T03:45:13;22.70;45.30
51613;DHT22;37694;51.748;14.326;2024-02-26T03:47:38;22.60;45.10
51613;DHT22;37694;51.748;14.326;2024-02-26T03:50:07;22.60;45.30
51613;DHT22;37694;51.748;14.326;2024-02-26T03:52:33;22.60;45.20
51613;DHT22;37694;51.748;14.326;2024-02-26T03:54:59;22.60;45.00
51613;DHT22;37694;51.748;14.326;2024-02-26T03:57:25;22.60;45.30
51613;DHT22;37694;51.748;14.326;2024-02-26T03:59:51;22.60;45.10
51613;DHT22;37694;51.748;14.326;2024-02-26T04:02:16;22.60;45.00
51613;DHT22;37694;51.748;14.326;2024-02-26T04:04:45;22.60;45.20
51613;DHT22;37694;51.748;14.326;2024-02-26T04:07:11;22.60;45.40
51613;DHT22;37694;51.748;14.326;2024-02-26T04:09:37;22.60;45.20
51613;DHT22;37694;51.748;14.326;2024-02-26T04:12:03;22.60;45.10
51613;DHT22;37694;51.748;14.326;2024-02-26T04:14:28;22.60;45.30
51613;DHT22;37694;51.748;14.326;2024-02-26T04:16:54;22.50;45.10
51613;DHT22;37694;51.748;14.326;2024-02-26T04:19:20;22.50;45.20
51613;DHT22;37694;51.748;14.326;2024-02-26T04:21:46;22.50;45.10
51613;DHT22;37694;51.748;14.326;2024-02-26T04:24:11;22.50;45.00
51613;DHT22;37694;51.748;14.326;2024-02-26T04:26:37;22.60;45.00
51613;DHT22;37694;51.748;14.326;2024-02-26T04:29:03;22.60;45.00
51613;DHT22;37694;51.748;14.326;2024-02-26T04:31:28;22.60;45.00
51613;DHT22;37694;51.748;14.326;2024-02-26T04:33:54;22.60;44.90
51613;DHT22;37694;51.748;14.326;2024-02-26T04:36:20;22.70;44.90
51613;DHT22;37694;51.748;14.326;2024-02-26T04:38:45;22.90;44.90
51613;DHT22;37694;51.748;14.326;2024-02-26T04:41:11;22.90;44.70
51613;DHT22;37694;51.748;14.326;2024-02-26T04:43:37;23.00;44.60
51613;DHT22;37694;51.748;14.326;2024-02-26T04:46:12;23.10;44.50
51613;DHT22;37694;51.748;14.326;2024-02-26T04:48:38;23.10;44.40
51613;DHT22;37694;51.748;14.326;2024-02-26T04:51:04;23.30;44.30
51613;DHT22;37694;51.748;14.326;2024-02-26T04:53:30;23.30;44.20
51613;DHT22;37694;51.748;14.326;2024-02-26T04:55:56;23.40;44.10
51613;DHT22;37694;51.748;14.326;2024-02-26T04:58:22;23.50;44.10
51613;DHT22;37694;51.748;14.326;2024-02-26T05:00:47;23.50;44.00
51613;DHT22;37694;51.748;14.326;2024-02-26T05:03:13;23.60;43.90
51613;DHT22;37694;51.748;14.326;2024-02-26T05:05:41;23.70;43.80
51613;DHT22;37694;51.748;14.326;2024-02-26T05:08:07;23.70;43.80
51613;DHT22;37694;51.748;14.326;2024-02-26T05:10:33;23.80;43.70
51613;DHT22;37694;51.748;14.326;2024-02-26T05:12:59;23.90;43.60
51613;DHT22;37694;51.748;14.326;2024-02-26T05:15:24;23.90;43.60
51613;DHT22;37694;51.748;14.326;2024-02-26T05:17:50;23.90;43.60
51613;DHT22;37694;51.748;14.326;2024-02-26T05:20:16;24.00;43.50
51613;DHT22;37694;51.748;14.326;2024-02-26T05:22:42;24.10;43.40
51613;DHT22;37694;51.748;14.326;2024-02-26T05:25:08;24.10;43.30
51613;DHT22;37694;51.748;14.326;2024-02-26T05:27:33;24.10;43.20
51613;DHT22;37694;51.748;14.326;2024-02-26T05:29:59;24.20;43.30
51613;DHT22;37694;51.748;14.326;2024-02-26T05:32:25;24.20;43.30
51613;DHT22;37694;51.748;14.326;2024-02-26T05:34:51;24.30;43.30
51613;DHT22;37694;51.748;14.326;2024-02-26T05:37:16;24.30;43.20
51613;DHT22;37694;51.748;14.326;2024-02-26T05:39:42;24.30;43.10
51613;DHT22;37694;51.748;14.326;2024-02-26T05:42:08;24.40;43.10
51613;DHT22;37694;51.748;14.326;2024-02-26T05:44:34;24.40;43.10
51613;DHT22;37694;51.748;14.326;2024-02-26T05:47:00;24.40;43.00
51613;DHT22;37694;51.748;14.326;2024-02-26T05:49:25;24.40;43.00
51613;DHT22;37694;51.748;14.326;2024-02-26T05:51:51;24.40;43.00
51613;DHT22;37694;51.748;14.326;2024-02-26T05:54:17;24.40;43.00
51613;DHT22;37694;51.748;14.326;2024-02-26T05:56:42;24.40;43.10
51613;DHT22;37694;51.748;14.326;2024-02-26T05:59:08;24.40;44.00
51613;DHT22;37694;51.748;14.326;2024-02-26T06:01:34;24.40;43.30
51613;DHT22;37694;51.748;14.326;2024-02-26T06:03:59;24.40;43.30
51613;DHT22;37694;51.748;14.326;2024-02-26T06:06:25;24.40;43.60
51613;DHT22;37694;51.748;14.326;2024-02-26T06:08:51;24.40;43.70
51613;DHT22;37694;51.748;14.326;2024-02-26T06:11:17;24.30;43.90
51613;DHT22;37694;51.748;14.326;2024-02-26T06:13:43;24.30;44.10
51613;DHT22;37694;51.748;14.326;2024-02-26T06:16:08;24.40;44.50
51613;DHT22;37694;51.748;14.326;2024-02-26T06:18:34;24.30;44.30
51613;DHT22;37694;51.748;14.326;2024-02-26T06:21:00;24.30;44.30
51613;DHT22;37694;51.748;14.326;2024-02-26T06:23:26;24.30;44.40
51613;DHT22;37694;51.748;14.326;2024-02-26T06:25:52;24.30;44.50
51613;DHT22;37694;51.748;14.326;2024-02-26T06:28:18;24.30;45.30
51613;DHT22;37694;51.748;14.326;2024-02-26T06:30:43;24.20;44.60
51613;DHT22;37694;51.748;14.326;2024-02-26T06:33:09;24.20;44.60
51613;DHT22;37694;51.748;14.326;2024-02-26T06:35:36;24.20;44.50
51613;DHT22;37694;51.748;14.326;2024-02-26T06:38:01;24.20;44.60
51613;DHT22;37694;51.748;14.326;2024-02-26T06:40:28;24.20;44.10
51613;DHT22;37694;51.748;14.326;2024-02-26T06:42:53;24.10;44.00
51613;DHT22;37694;51.748;14.326;2024-02-26T06:45:19;24.10;43.80
51613;DHT22;37694;51.748;14.326;2024-02-26T06:47:47;24.10;44.30
51613;DHT22;37694;51.748;14.326;2024-02-26T06:50:13;24.10;43.70
51613;DHT22;37694;51.748;14.326;2024-02-26T06:52:39;24.10;44.30
51613;DHT22;37694;51.748;14.326;2024-02-26T06:55:05;24.10;44.50
51613;DHT22;37694;51.748;14.326;2024-02-26T06:57:33;24.00;44.40
51613;DHT22;37694;51.748;14.326;2024-02-26T06:59:59;24.00;44.10
51613;DHT22;37694;51.748;14.326;2024-02-26T07:02:25;24.00;43.90
51613;DHT22;37694;51.748;14.326;2024-02-26T07:04:51;24.00;44.20
51613;DHT22;37694;51.748;14.326;2024-02-26T07:07:16;24.00;44.10
51613;DHT22;37694;51.748;14.326;2024-02-26T07:09:44;24.00;44.60
51613;DHT22;37694;51.748;14.326;2024-02-26T07:12:10;23.90;44.40
51613;DHT22;37694;51.748;14.326;2024-02-26T07:14:35;23.90;44.30
51613;DHT22;37694;51.748;14.326;2024-02-26T07:17:03;24.00;44.30
51613;DHT22;37694;51.748;14.326;2024-02-26T07:19:28;24.00;44.10
51613;DHT22;37694;51.748;14.326;2024-02-26T07:21:54;24.10;44.00
51613;DHT22;37694;51.748;14.326;2024-02-26T07:24:21;24.10;43.90
51613;DHT22;37694;51.748;14.326;2024-02-26T07:26:46;24.20;43.70
51613;DHT22;37694;51.748;14.326;2024-02-26T07:29:12;24.30;43.60
51613;DHT22;37694;51.748;14.326;2024-02-26T07:31:38;24.40;43.40
51613;DHT22;37694;51.748;14.326;2024-02-26T07:34:03;24.50;43.30
51613;DHT22;37694;51.748;14.326;2024-02-26T07:36:29;24.50;43.10
51613;DHT22;37694;51.748;14.326;2024-02-26T07:38:55;24.60;43.10
51613;DHT22;37694;51.748;14.326;2024-02-26T07:41:21;24.60;43.00
51613;DHT22;37694;51.748;14.326;2024-02-26T07:43:46;24.70;42.90
51613;DHT22;37694;51.748;14.326;2024-02-26T07:46:12;24.70;42.80
51613;DHT22;37694;51.748;14.326;2024-02-26T07:48:38;24.70;42.70
51613;DHT22;37694;51.748;14.326;2024-02-26T07:51:04;24.70;42.70
51613;DHT22;37694;51.748;14.326;2024-02-26T07:53:30;24.70;42.70
51613;DHT22;37694;51.748;14.326;2024-02-26T07:55:56;24.70;42.60
51613;DHT22;37694;51.748;14.326;2024-02-26T07:58:23;24.70;42.70
51613;DHT22;37694;51.748;14.326;2024-02-26T08:00:49;24.80;42.60
51613;DHT22;37694;51.748;14.326;2024-02-26T08:03:15;24.70;42.50
51613;DHT22;37694;51.748;14.326;2024-02-26T08:05:41;24.80;42.60
51613;DHT22;37694;51.748;14.326;2024-02-26T08:08:09;24.80;42.50
51613;DHT22;37694;51.748;14.326;2024-02-26T08:10:34;24.80;42.50
51613;DHT22;37694;51.748;14.326;2024-02-26T08:13:00;24.80;42.50
51613;DHT22;37694;51.748;14.326;2024-02-26T08:15:31;24.70;42.40
51613;DHT22;37694;51.748;14.326;2024-02-26T08:17:58;24.80;42.50
51613;DHT22;37694;51.748;14.326;2024-02-26T08:20:23;24.80;42.50
51613;DHT22;37694;51.748;14.326;2024-02-26T08:22:49;24.80;42.50
51613;DHT22;37694;51.748;14.326;2024-02-26T08:25:14;24.80;42.40
51613;DHT22;37694;51.748;14.326;2024-02-26T08:27:41;24.80;42.40
51613;DHT22;37694;51.748;14.326;2024-02-26T08:30:07;24.80;42.40
51613;DHT22;37694;51.748;14.326;2024-02-26T08:32:33;24.80;42.30
51613;DHT22;37694;51.748;14.326;2024-02-26T08:34:59;24.80;42.30
51613;DHT22;37694;51.748;14.326;2024-02-26T08:37:24;24.80;42.30
51613;DHT22;37694;51.748;14.326;2024-02-26T08:39:50;24.80;42.30
51613;DHT22;37694;51.748;14.326;2024-02-26T08:42:15;24.80;42.30
51613;DHT22;37694;51.748;14.326;2024-02-26T08:44:41;24.80;42.30
51613;DHT22;37694;51.748;14.326;2024-02-26T08:47:07;24.80;42.20
51613;DHT22;37694;51.748;14.326;2024-02-26T08:49:32;24.80;42.20
51613;DHT22;37694;51.748;14.326;2024-02-26T08:51:58;24.80;42.20
51613;DHT22;37694;51.748;14.326;2024-02-26T08:54:24;24.80;42.20
51613;DHT22;37694;51.748;14.326;2024-02-26T08:56:49;24.80;42.20
51613;DHT22;37694;51.748;14.326;2024-02-26T08:59:15;24.90;42.20
51613;DHT22;37694;51.748;14.326;2024-02-26T09:01:42;24.90;42.10
51613;DHT22;37694;51.748;14.326;2024-02-26T09:04:07;24.90;42.10
51613;DHT22;37694;51.748;14.326;2024-02-26T09:06:33;24.90;42.10
51613;DHT22;37694;51.748;14.326;2024-02-26T09:08:58;24.90;42.00
51613;DHT22;37694;51.748;14.326;2024-02-26T09:11:24;24.90;42.00
51613;DHT22;37694;51.748;14.326;2024-02-26T09:13:50;24.90;42.00
51613;DHT22;37694;51.748;14.326;2024-02-26T09:16:15;24.90;41.90
51613;DHT22;37694;51.748;14.326;2024-02-26T09:18:41;24.90;41.90
51613;DHT22;37694;51.748;14.326;2024-02-26T09:21:07;24.90;41.80
51613;DHT22;37694;51.748;14.326;2024-02-26T09:23:32;24.90;41.80
51613;DHT22;37694;51.748;14.326;2024-02-26T09:26:00;24.90;41.80
51613;DHT22;37694;51.748;14.326;2024-02-26T09:28:26;24.90;41.70
51613;DHT22;37694;51.748;14.326;2024-02-26T09:30:51;25.00;41.70
51613;DHT22;37694;51.748;14.326;2024-02-26T09:33:17;25.00;41.70
51613;DHT22;37694;51.748;14.326;2024-02-26T09:35:43;25.00;41.60
51613;DHT22;37694;51.748;14.326;2024-02-26T09:38:08;25.00;41.60
51613;DHT22;37694;51.748;14.326;2024-02-26T09:40:34;25.00;41.50
51613;DHT22;37694;51.748;14.326;2024-02-26T09:43:00;25.00;41.50
51613;DHT22;37694;51.748;14.326;2024-02-26T09:45:30;25.00;41.30
51613;DHT22;37694;51.748;14.326;2024-02-26T09:47:58;25.00;41.40
51613;DHT22;37694;51.748;14.326;2024-02-26T09:50:24;25.10;41.50
51613;DHT22;37694;51.748;14.326;2024-02-26T09:52:51;25.10;41.40
51613;DHT22;37694;51.748;14.326;2024-02-26T09:55:17;25.10;41.40
51613;DHT22;37694;51.748;14.326;2024-02-26T09:57:45;25.10;41.40
51613;DHT22;37694;51.748;14.326;2024-02-26T10:00:19;25.20;41.40
51613;DHT22;37694;51.748;14.326;2024-02-26T10:02:46;25.20;41.20
51613;DHT22;37694;51.748;14.326;2024-02-26T10:05:17;25.20;41.20
51613;DHT22;37694;51.748;14.326;2024-02-26T10:07:45;25.20;41.10
51613;DHT22;37694;51.748;14.326;2024-02-26T10:10:11;25.20;41.10
51613;DHT22;37694;51.748;14.326;2024-02-26T10:12:37;25.20;41.00
51613;DHT22;37694;51.748;14.326;2024-02-26T10:15:03;25.20;41.00
51613;DHT22;37694;51.748;14.326;2024-02-26T10:17:29;25.20;40.90
51613;DHT22;37694;51.748;14.326;2024-02-26T10:19:55;25.20;41.00
51613;DHT22;37694;51.748;14.326;2024-02-26T10:22:35;25.20;41.00
51613;DHT22;37694;51.748;14.326;2024-02-26T10:25:01;25.20;40.70
51613;DHT22;37694;51.748;14.326;2024-02-26T10:27:28;25.30;40.90
51613;DHT22;37694;51.748;14.326;2024-02-26T10:29:56;25.30;40.90
51613;DHT22;37694;51.748;14.326;2024-02-26T10:32:22;25.30;40.80
51613;DHT22;37694;51.748;14.326;2024-02-26T10:34:48;25.30;40.70
51613;DHT22;37694;51.748;14.326;2024-02-26T10:37:13;25.30;40.80
51613;DHT22;37694;51.748;14.326;2024-02-26T10:39:40;25.40;40.70
51613;DHT22;37694;51.748;14.326;2024-02-26T10:42:12;25.30;40.70
51613;DHT22;37694;51.748;14.326;2024-02-26T10:44:40;25.40;40.80
51613;DHT22;37694;51.748;14.326;2024-02-26T10:47:07;25.40;40.70
51613;DHT22;37694;51.748;14.326;2024-02-26T10:49:35;25.40;40.60
51613;DHT22;37694;51.748;14.326;2024-02-26T10:52:01;25.40;40.60
51613;DHT22;37694;51.748;14.326;2024-02-26T10:54:29;25.40;40.60
51613;DHT22;37694;51.748;14.326;2024-02-26T10:56:58;25.40;40.60
51613;DHT22;37694;51.748;14.326;2024-02-26T10:59:24;25.40;40.60
51613;DHT22;37694;51.748;14.326;2024-02-26T11:01:50;25.40;40.60
51613;DHT22;37694;51.748;14.326;2024-02-26T11:04:17;25.40;40.60
51613;DHT22;37694;51.748;14.326;2024-02-26T11:06:46;25.40;40.60
51613;DHT22;37694;51.748;14.326;2024-02-26T11:09:14;25.40;40.50
51613;DHT22;37694;51.748;14.326;2024-02-26T11:11:41;25.40;40.40
51613;DHT22;37694;51.748;14.326;2024-02-26T11:14:09;25.40;40.60
51613;DHT22;37694;51.748;14.326;2024-02-26T11:16:35;25.40;40.40
51613;DHT22;37694;51.748;14.326;2024-02-26T11:19:02;25.40;40.40
51613;DHT22;37694;51.748;14.326;2024-02-26T11:21:28;25.40;40.40
51613;DHT22;37694;51.748;14.326;2024-02-26T11:24:13;25.40;40.40
51613;DHT22;37694;51.748;14.326;2024-02-26T11:26:43;25.40;40.50
51613;DHT22;37694;51.748;14.326;2024-02-26T11:29:11;25.40;40.40
51613;DHT22;37694;51.748;14.326;2024-02-26T11:31:39;25.50;40.40
51613;DHT22;37694;51.748;14.326;2024-02-26T11:34:07;25.50;40.30
51613;DHT22;37694;51.748;14.326;2024-02-26T11:36:34;25.50;40.30
51613;DHT22;37694;51.748;14.326;2024-02-26T11:39:02;25.50;40.40
51613;DHT22;37694;51.748;14.326;2024-02-26T11:41:29;25.50;40.30
51613;DHT22;37694;51.748;14.326;2024-02-26T11:44:00;25.50;40.30
51613;DHT22;37694;51.748;14.326;2024-02-26T11:46:34;25.50;40.30
51613;DHT22;37694;51.748;14.326;2024-02-26T11:51:54;25.50;40.30
51613;DHT22;37694;51.748;14.326;2024-02-26T11:54:52;25.50;40.30
51613;DHT22;37694;51.748;14.326;2024-02-26T11:57:31;25.50;40.30
51613;DHT22;37694;51.748;14.326;2024-02-26T12:00:13;25.50;40.30
51613;DHT22;37694;51.748;14.326;2024-02-26T12:05:18;25.50;40.30
51613;DHT22;37694;51.748;14.326;2024-02-26T12:08:02;25.40;40.10
51613;DHT22;37694;51.748;14.326;2024-02-26T12:10:39;25.50;40.30
51613;DHT22;37694;51.748;14.326;2024-02-26T12:13:13;25.40;40.30
51613;DHT22;37694;51.748;14.326;2024-02-26T12:15:44;25.40;40.20
51613;DHT22;37694;51.748;14.326;2024-02-26T12:18:17;25.40;40.10
51613;DHT22;37694;51.748;14.326;2024-02-26T12:20:43;25.40;40.20
51613;DHT22;37694;51.748;14.326;2024-02-26T12:23:14;25.40;40.30
51613;DHT22;37694;51.748;14.326;2024-02-26T12:25:40;25.40;40.20
51613;DHT22;37694;51.748;14.326;2024-02-26T12:28:07;25.30;40.10
51613;DHT22;37694;51.748;14.326;2024-02-26T12:30:33;25.30;40.20
51613;DHT22;37694;51.748;14.326;2024-02-26T12:33:00;25.30;40.20
51613;DHT22;37694;51.748;14.326;2024-02-26T12:35:27;25.30;40.10
51613;DHT22;37694;51.748;14.326;2024-02-26T12:37:54;25.30;40.20
51613;DHT22;37694;51.748;14.326;2024-02-26T12:40:20;25.30;40.10
51613;DHT22;37694;51.748;14.326;2024-02-26T12:42:46;25.30;40.20
51613;DHT22;37694;51.748;14.326;2024-02-26T12:45:13;25.30;40.10
51613;DHT22;37694;51.748;14.326;2024-02-26T12:47:45;25.20;40.10
51613;DHT22;37694;51.748;14.326;2024-02-26T12:50:17;25.20;40.00
51613;DHT22;37694;51.748;14.326;2024-02-26T12:52:47;25.20;40.10
51613;DHT22;37694;51.748;14.326;2024-02-26T12:55:18;25.30;40.30
51613;DHT22;37694;51.748;14.326;2024-02-26T12:57:45;25.20;40.00
51613;DHT22;37694;51.748;14.326;2024-02-26T13:00:13;25.20;40.00
51613;DHT22;37694;51.748;14.326;2024-02-26T13:02:41;25.20;40.10
51613;DHT22;37694;51.748;14.326;2024-02-26T13:05:08;25.20;40.00
51613;DHT22;37694;51.748;14.326;2024-02-26T13:07:43;25.20;40.00
51613;DHT22;37694;51.748;14.326;2024-02-26T13:10:09;25.20;40.00
51613;DHT22;37694;51.748;14.326;2024-02-26T13:12:42;25.20;40.00
51613;DHT22;37694;51.748;14.326;2024-02-26T13:15:13;25.20;40.10
51613;DHT22;37694;51.748;14.326;2024-02-26T13:17:39;25.20;40.00
51613;DHT22;37694;51.748;14.326;2024-02-26T13:20:05;25.20;40.20
51613;DHT22;37694;51.748;14.326;2024-02-26T13:22:31;25.20;40.00
51613;DHT22;37694;51.748;14.326;2024-02-26T13:24:59;25.20;40.00
51613;DHT22;37694;51.748;14.326;2024-02-26T13:27:25;25.20;40.00
51613;DHT22;37694;51.748;14.326;2024-02-26T13:30:11;25.20;40.00
51613;DHT22;37694;51.748;14.326;2024-02-26T13:32:39;25.20;40.10
51613;DHT22;37694;51.748;14.326;2024-02-26T13:35:10;25.10;40.20
51613;DHT22;37694;51.748;14.326;2024-02-26T13:37:36;25.10;40.00
51613;DHT22;37694;51.748;14.326;2024-02-26T13:40:10;25.20;40.30
51613;DHT22;37694;51.748;14.326;2024-02-26T13:42:39;25.10;40.00
51613;DHT22;37694;51.748;14.326;2024-02-26T13:45:05;25.10;40.30
51613;DHT22;37694;51.748;14.326;2024-02-26T13:47:35;25.00;40.10
51613;DHT22;37694;51.748;14.326;2024-02-26T13:50:02;25.00;40.10
51613;DHT22;37694;51.748;14.326;2024-02-26T13:52:28;25.00;40.10
51613;DHT22;37694;51.748;14.326;2024-02-26T13:54:53;25.00;40.10
51613;DHT22;37694;51.748;14.326;2024-02-26T13:57:19;25.00;40.10
51613;DHT22;37694;51.748;14.326;2024-02-26T13:59:45;25.00;40.10
51613;DHT22;37694;51.748;14.326;2024-02-26T14:02:11;25.00;40.20
51613;DHT22;37694;51.748;14.326;2024-02-26T14:04:37;25.00;40.30
51613;DHT22;37694;51.748;14.326;2024-02-26T14:07:04;25.00;40.30
51613;DHT22;37694;51.748;14.326;2024-02-26T14:09:30;24.90;40.10
51613;DHT22;37694;51.748;14.326;2024-02-26T14:11:58;25.00;40.30
51613;DHT22;37694;51.748;14.326;2024-02-26T14:14:24;24.90;40.10
51613;DHT22;37694;51.748;14.326;2024-02-26T14:16:51;24.90;40.10
51613;DHT22;37694;51.748;14.326;2024-02-26T14:19:17;24.90;40.30
51613;DHT22;37694;51.748;14.326;2024-02-26T14:21:42;24.90;40.30
51613;DHT22;37694;51.748;14.326;2024-02-26T14:24:08;24.90;40.30
51613;DHT22;37694;51.748;14.326;2024-02-26T14:26:34;24.80;40.20
51613;DHT22;37694;51.748;14.326;2024-02-26T14:29:00;24.80;39.90
51613;DHT22;37694;51.748;14.326;2024-02-26T14:31:25;24.80;39.60
51613;DHT22;37694;51.748;14.326;2024-02-26T14:33:51;24.70;39.70
51613;DHT22;37694;51.748;14.326;2024-02-26T14:36:20;24.70;39.20
51613;DHT22;37694;51.748;14.326;2024-02-26T14:38:46;24.70;39.30
51613;DHT22;37694;51.748;14.326;2024-02-26T14:41:12;24.60;39.00
51613;DHT22;37694;51.748;14.326;2024-02-26T14:43:38;24.70;38.60
51613;DHT22;37694;51.748;14.326;2024-02-26T14:46:03;24.60;38.20
51613;DHT22;37694;51.748;14.326;2024-02-26T14:48:30;24.60;37.90
51613;DHT22;37694;51.748;14.326;2024-02-26T14:50:57;24.60;37.80
51613;DHT22;37694;51.748;14.326;2024-02-26T14:53:23;24.50;37.70
51613;DHT22;37694;51.748;14.326;2024-02-26T14:55:49;24.50;38.40
51613;DHT22;37694;51.748;14.326;2024-02-26T14:58:15;24.50;37.60
51613;DHT22;37694;51.748;14.326;2024-02-26T15:00:41;24.40;38.70
51613;DHT22;37694;51.748;14.326;2024-02-26T15:03:07;24.40;37.70
51613;DHT22;37694;51.748;14.326;2024-02-26T15:05:33;24.40;38.00
51613;DHT22;37694;51.748;14.326;2024-02-26T15:07:59;24.40;38.50
51613;DHT22;37694;51.748;14.326;2024-02-26T15:10:25;24.40;38.50
51613;DHT22;37694;51.748;14.326;2024-02-26T15:12:51;24.40;38.60
51613;DHT22;37694;51.748;14.326;2024-02-26T15:15:20;24.40;39.00
51613;DHT22;37694;51.748;14.326;2024-02-26T15:17:47;24.40;39.30